首页
METAR-TAF:

METAR-TAF

机场 :

Port Meadville Airport

Meadville, 宾夕法尼亚州, 美国

纬度: 41-37-35N, 经度: 080-12-53W, 海拔: 427米

当前天气观测

该预报发布于21分钟前的08:53 UTC
风速4节,风向西转西南
温度 -8°C
湿度 92%
气压 1025 hPa
能見度: 16.1公里
阴天层高于4600英尺

METAR: KGKJ 130853Z AUTO 24004KT 10SM OVC046 M08/M09 A3027 RMK AO2 SNE05 SLP273 P0000 60000 T10781094 53008 TSNO

时间: 04:14 (09:14 UTC)


TAF: 丢失

超过4000个机场的气象观测和天气预报(METAR&TAF报告)。

可查询的气象台以黄色和红色小点在地图上表示。

将鼠标移到小点上方,可查看气象台名称。

然后点击查看天气观测和预报。

如需切换地图:点击带黑十字的绿色按钮放大地图;点击带横线的绿色按钮缩小地图;或者点击绿色箭头查看邻近地区的地图。


METAR-TAF: